Time;durP1;ratioP1;P1;durP2;ratioP2;P2;SDS_P1;SDS_P2;PMS_P1;PMS_P2;Temp;Humidity;BMP_temperature;BMP_pressure;BME280_temperature;BME280_humidity;BME280_pressure;Samples;Min_cycle;Max_cycle;Signal;HPM_P1;HPM_P2
2023/07/14 00:01:53;;;;;;;1.23;1.23;;;24.00;61.90;;;;;;4970479;28;20197;-72
2023/07/14 00:04:33;;;;;;;1.20;1.20;;;24.00;61.90;;;;;;4955897;28;20726;-71
2023/07/14 00:07:01;;;;;;;1.13;0.98;;;24.10;62.00;;;;;;4960119;28;20189;-71
2023/07/14 00:09:30;;;;;;;1.40;1.30;;;24.00;62.00;;;;;;4954026;28;20547;-71
2023/07/14 00:11:58;;;;;;;1.42;1.33;;;24.00;61.90;;;;;;4954394;28;20224;-72
2023/07/14 00:14:24;;;;;;;1.70;1.25;;;24.10;62.00;;;;;;4969257;28;20268;-71
2023/07/14 00:16:51;;;;;;;1.20;1.10;;;24.00;62.00;;;;;;4962289;28;20196;-71
2023/07/14 00:19:19;;;;;;;1.25;1.20;;;24.00;62.00;;;;;;4955277;28;20219;-71
2023/07/14 00:21:46;;;;;;;1.67;1.10;;;24.00;62.00;;;;;;4946764;28;20182;-71
2023/07/14 00:24:16;;;;;;;1.50;1.20;;;24.00;62.00;;;;;;4950343;28;20206;-71
2023/07/14 00:26:47;;;;;;;1.40;1.30;;;24.00;62.00;;;;;;4953465;28;20181;-71
2023/07/14 00:29:38;;;;;;;1.42;1.20;;;24.00;61.90;;;;;;4962976;28;20187;-71
2023/07/14 00:32:15;;;;;;;3.10;1.38;;;24.00;62.00;;;;;;4949386;28;20648;-71
2023/07/14 00:34:42;;;;;;;1.20;1.20;;;24.00;62.00;;;;;;4972003;28;20185;-71
2023/07/14 00:37:08;;;;;;;1.83;1.33;;;24.00;62.00;;;;;;4959090;28;20189;-71
2023/07/14 00:39:34;;;;;;;1.40;1.30;;;24.00;62.00;;;;;;4953775;28;20251;-71
2023/07/14 00:42:00;;;;;;;1.38;1.27;;;24.00;62.00;;;;;;4952775;28;20255;-71
2023/07/14 00:44:28;;;;;;;1.30;1.13;;;24.00;62.10;;;;;;4965834;28;20214;-71
2023/07/14 00:46:53;;;;;;;1.27;1.17;;;24.00;62.00;;;;;;4970207;28;20214;-72
2023/07/14 00:49:40;;;;;;;1.35;1.25;;;24.00;62.00;;;;;;4953449;28;20182;-72
2023/07/14 00:52:39;;;;;;;1.50;1.40;;;24.00;62.00;;;;;;4970076;28;20248;-72
2023/07/14 00:55:42;;;;;;;1.40;1.30;;;24.00;62.00;;;;;;4945916;28;20213;-71
2023/07/14 00:58:20;;;;;;;2.78;1.58;;;24.00;62.10;;;;;;4965694;28;20212;-71
2023/07/14 01:01:08;;;;;;;1.40;1.30;;;23.90;62.00;;;;;;4970002;28;20754;-71
2023/07/14 01:03:41;;;;;;;1.13;1.02;;;24.00;62.10;;;;;;4969666;28;20220;-72
2023/07/14 01:06:17;;;;;;;1.50;1.40;;;23.90;62.00;;;;;;4956187;28;20209;-72
2023/07/14 01:08:56;;;;;;;1.30;1.20;;;24.00;62.00;;;;;;4960063;28;20661;-72
2023/07/14 01:11:31;;;;;;;1.58;1.48;;;23.90;62.00;;;;;;4957981;28;20590;-71
2023/07/14 01:14:02;;;;;;;1.45;1.10;;;23.90;62.00;;;;;;4957051;28;20205;-71
2023/07/14 01:16:31;;;;;;;1.38;1.27;;;23.90;62.00;;;;;;4972898;28;20215;-71
2023/07/14 01:18:58;;;;;;;1.25;1.13;;;23.90;62.00;;;;;;4964996;28;20196;-71
2023/07/14 01:21:25;;;;;;;1.35;1.25;;;23.90;62.00;;;;;;4972488;28;20220;-71
2023/07/14 01:24:17;;;;;;;1.58;1.33;;;23.90;62.00;;;;;;4973175;28;20224;-71
2023/07/14 01:27:05;;;;;;;1.50;1.40;;;23.90;62.00;;;;;;4964822;28;20237;-71
2023/07/14 01:29:33;;;;;;;0.93;0.93;;;23.90;62.00;;;;;;4956633;28;20190;-71
2023/07/14 01:32:02;;;;;;;1.30;1.20;;;23.90;62.00;;;;;;4965177;28;20660;-71
2023/07/14 01:34:28;;;;;;;1.27;1.15;;;23.90;62.00;;;;;;4971901;28;20216;-71
2023/07/14 01:36:58;;;;;;;1.00;1.00;;;23.90;62.00;;;;;;4965053;28;20195;-71
2023/07/14 01:39:28;;;;;;;1.25;1.20;;;23.90;62.00;;;;;;4972819;28;20247;-71
2023/07/14 01:41:54;;;;;;;1.52;1.42;;;23.90;62.00;;;;;;4992016;28;20184;-71
2023/07/14 01:44:22;;;;;;;1.40;1.30;;;23.90;62.00;;;;;;4959469;28;20212;-71
2023/07/14 01:46:49;;;;;;;1.40;1.30;;;23.90;62.00;;;;;;4961509;28;20192;-71
2023/07/14 01:49:26;;;;;;;1.48;1.10;;;23.90;62.00;;;;;;4972571;28;20189;-71
2023/07/14 01:51:57;;;;;;;1.63;1.10;;;23.90;62.00;;;;;;4972644;28;20186;-71
2023/07/14 01:54:40;;;;;;;1.48;1.35;;;23.90;62.00;;;;;;4963512;28;20289;-72
2023/07/14 01:57:12;;;;;;;1.50;1.40;;;23.90;62.10;;;;;;4956692;28;20201;-72
2023/07/14 01:59:46;;;;;;;1.55;1.10;;;23.80;61.90;;;;;;4969913;28;20183;-72
2023/07/14 02:02:24;;;;;;;1.58;1.48;;;23.80;61.90;;;;;;4964209;28;20190;-71
2023/07/14 02:04:52;;;;;;;1.88;1.30;;;23.90;62.10;;;;;;4956035;28;20212;-72
2023/07/14 02:07:18;;;;;;;1.10;1.00;;;23.80;61.90;;;;;;4979512;28;20188;-72
2023/07/14 02:09:45;;;;;;;1.55;1.30;;;23.80;61.90;;;;;;4952883;28;20305;-71
2023/07/14 02:12:34;;;;;;;1.40;1.33;;;23.80;61.90;;;;;;4956336;28;20191;-72
2023/07/14 02:15:07;;;;;;;1.40;1.30;;;23.80;61.90;;;;;;4957034;28;20308;-72
2023/07/14 02:17:37;;;;;;;1.13;1.13;;;23.90;62.10;;;;;;4971411;28;20816;-72
2023/07/14 02:20:13;;;;;;;1.35;1.25;;;23.90;62.10;;;;;;4986041;28;20199;-72
2023/07/14 02:22:41;;;;;;;1.73;1.40;;;23.90;62.00;;;;;;4982255;28;20217;-72
2023/07/14 02:25:14;;;;;;;1.25;1.25;;;23.80;62.00;;;;;;4971385;28;20300;-71
2023/07/14 02:27:40;;;;;;;1.60;1.05;;;23.80;61.90;;;;;;4963642;28;20189;-72
2023/07/14 02:30:20;;;;;;;1.33;1.23;;;23.90;62.00;;;;;;4961357;28;20240;-72
2023/07/14 02:32:54;;;;;;;1.10;1.10;;;23.80;61.90;;;;;;4990931;28;20299;-71
2023/07/14 02:35:49;;;;;;;1.20;1.10;;;23.80;61.90;;;;;;4967839;28;20190;-71
2023/07/14 02:38:17;;;;;;;1.40;1.20;;;23.80;62.00;;;;;;4967172;28;20569;-71
2023/07/14 02:40:51;;;;;;;1.65;1.40;;;23.80;61.80;;;;;;4971519;28;20193;-71
2023/07/14 02:43:20;;;;;;;1.30;1.20;;;23.80;62.00;;;;;;4955581;28;20709;-71
2023/07/14 02:46:18;;;;;;;1.30;1.17;;;23.80;61.90;;;;;;4954455;28;20225;-71
2023/07/14 02:48:48;;;;;;;1.08;1.08;;;23.80;62.00;;;;;;4957858;28;20192;-71
2023/07/14 02:51:15;;;;;;;1.27;1.10;;;23.80;61.90;;;;;;4960357;28;20182;-71
2023/07/14 02:53:41;;;;;;;1.20;1.10;;;23.80;61.90;;;;;;4963404;28;20209;-71
2023/07/14 02:56:08;;;;;;;1.10;1.00;;;23.80;61.90;;;;;;4960157;28;20186;-71
2023/07/14 02:58:35;;;;;;;1.20;1.10;;;23.80;62.00;;;;;;4970749;28;20186;-71
2023/07/14 03:01:03;;;;;;;1.40;1.20;;;23.80;61.90;;;;;;4971404;28;20201;-71
2023/07/14 03:03:29;;;;;;;1.27;1.17;;;23.80;61.90;;;;;;4979288;28;20224;-71
2023/07/14 03:05:56;;;;;;;1.20;1.10;;;23.80;61.90;;;;;;4951108;28;20293;-71
2023/07/14 03:08:22;;;;;;;1.30;1.20;;;23.80;61.90;;;;;;4959728;28;20186;-71
2023/07/14 03:10:59;;;;;;;1.42;1.02;;;23.80;61.90;;;;;;4970423;28;20204;-71
2023/07/14 03:13:26;;;;;;;1.30;1.20;;;23.80;61.90;;;;;;4979008;28;20217;-71
2023/07/14 03:15:52;;;;;;;1.45;1.35;;;23.80;62.00;;;;;;4969624;28;20186;-71
2023/07/14 03:18:18;;;;;;;1.40;1.30;;;23.80;61.90;;;;;;4951849;28;20200;-71
2023/07/14 03:20:45;;;;;;;1.40;1.30;;;23.80;61.90;;;;;;4956212;28;20204;-71
2023/07/14 03:23:11;;;;;;;1.40;1.30;;;23.80;61.90;;;;;;4965321;28;20218;-71
2023/07/14 03:25:40;;;;;;;1.30;0.95;;;23.70;61.90;;;;;;4967622;28;20221;-71
2023/07/14 03:28:05;;;;;;;1.00;0.90;;;23.80;62.00;;;;;;4959114;28;20277;-71
2023/07/14 03:30:40;;;;;;;1.45;1.15;;;23.80;61.90;;;;;;4954625;28;20272;-71
2023/07/14 03:33:06;;;;;;;1.08;1.08;;;23.80;61.90;;;;;;4961342;28;20201;-71
2023/07/14 03:35:33;;;;;;;1.13;1.13;;;23.80;61.90;;;;;;4953778;28;20280;-72
2023/07/14 03:37:58;;;;;;;1.45;1.35;;;23.80;61.90;;;;;;4962820;28;20289;-72
2023/07/14 03:40:24;;;;;;;1.42;1.33;;;23.80;61.90;;;;;;4977927;28;20188;-71
2023/07/14 03:42:50;;;;;;;1.30;1.10;;;23.70;61.90;;;;;;4962780;28;20202;-72
2023/07/14 03:45:16;;;;;;;1.50;1.20;;;23.80;61.90;;;;;;4953843;28;20366;-72
2023/07/14 03:47:42;;;;;;;1.23;1.23;;;23.70;61.80;;;;;;4970424;28;20194;-72
2023/07/14 03:50:10;;;;;;;1.00;1.00;;;23.70;61.70;;;;;;4970709;28;20194;-72
2023/07/14 03:52:36;;;;;;;1.27;1.00;;;23.70;61.80;;;;;;4979388;28;20216;-71
2023/07/14 03:55:02;;;;;;;0.93;0.93;;;23.70;61.90;;;;;;4981078;28;20181;-72
2023/07/14 03:57:27;;;;;;;0.93;0.93;;;23.70;61.90;;;;;;4981779;28;20193;-71
2023/07/14 03:59:53;;;;;;;1.23;1.17;;;23.70;61.90;;;;;;4970444;28;20193;-71
2023/07/14 04:02:19;;;;;;;1.42;1.30;;;23.70;61.80;;;;;;4978458;28;20212;-71
2023/07/14 04:04:45;;;;;;;1.30;1.20;;;23.70;61.80;;;;;;4955400;28;20213;-71
2023/07/14 04:07:11;;;;;;;0.98;0.98;;;23.70;61.80;;;;;;4976286;28;20190;-71
2023/07/14 04:09:37;;;;;;;1.10;1.10;;;23.70;61.80;;;;;;4961837;28;20287;-71
2023/07/14 04:12:03;;;;;;;1.33;0.95;;;23.70;61.80;;;;;;4975966;28;20197;-71
2023/07/14 04:14:29;;;;;;;1.40;1.30;;;23.70;61.90;;;;;;4964872;28;20208;-71
2023/07/14 04:16:55;;;;;;;1.23;1.13;;;23.70;61.90;;;;;;4957623;28;20196;-71
2023/07/14 04:19:20;;;;;;;1.30;1.15;;;23.70;61.90;;;;;;4958945;28;20196;-72
2023/07/14 04:21:47;;;;;;;1.10;1.10;;;23.70;61.90;;;;;;4972388;28;20196;-71
2023/07/14 04:24:12;;;;;;;1.13;1.02;;;23.70;61.90;;;;;;4966957;28;20303;-71
2023/07/14 04:26:38;;;;;;;1.23;1.17;;;23.70;61.90;;;;;;4953852;28;20264;-71
2023/07/14 04:29:07;;;;;;;1.38;1.10;;;23.70;61.90;;;;;;4976307;28;20205;-71
2023/07/14 04:31:33;;;;;;;1.10;1.10;;;23.70;61.90;;;;;;4968915;28;20738;-72
2023/07/14 04:33:59;;;;;;;1.10;1.00;;;23.70;61.80;;;;;;4950108;28;20305;-71
2023/07/14 04:36:25;;;;;;;1.30;1.20;;;23.70;61.80;;;;;;4964592;28;20308;-72
2023/07/14 04:39:10;;;;;;;1.42;1.33;;;23.60;61.70;;;;;;4968998;28;20352;-72
2023/07/14 04:41:36;;;;;;;1.33;1.20;;;23.70;61.90;;;;;;4973218;28;20267;-72
2023/07/14 04:44:13;;;;;;;1.10;1.10;;;23.70;61.90;;;;;;4957070;28;20300;-72
2023/07/14 04:46:41;;;;;;;1.30;1.20;;;23.70;61.90;;;;;;4972416;28;20256;-72
2023/07/14 04:49:08;;;;;;;1.30;1.20;;;23.70;61.90;;;;;;4961717;28;20246;-71
2023/07/14 04:51:35;;;;;;;1.15;1.10;;;23.70;61.90;;;;;;4958087;28;20265;-71
2023/07/14 04:54:01;;;;;;;1.35;1.15;;;23.70;61.80;;;;;;4980176;28;20240;-71
2023/07/14 04:56:27;;;;;;;2.30;1.27;;;23.70;61.80;;;;;;4958622;28;20222;-71
2023/07/14 04:58:53;;;;;;;1.65;1.50;;;23.70;61.80;;;;;;4971942;28;20560;-70
2023/07/14 05:01:19;;;;;;;1.20;1.10;;;23.70;61.60;;;;;;4974183;28;20205;-71
2023/07/14 05:03:45;;;;;;;1.15;1.05;;;23.60;61.30;;;;;;4962399;28;20205;-70
2023/07/14 05:06:12;;;;;;;1.20;1.10;;;23.70;61.60;;;;;;4984379;28;20259;-70
2023/07/14 05:08:38;;;;;;;2.15;1.42;;;23.60;61.30;;;;;;4958770;28;20321;-71
2023/07/14 05:11:05;;;;;;;1.15;1.05;;;23.70;61.40;;;;;;4966795;28;20190;-71
2023/07/14 05:13:30;;;;;;;1.30;1.20;;;23.60;61.40;;;;;;4964767;28;20312;-70
2023/07/14 05:15:57;;;;;;;1.17;1.08;;;23.70;61.50;;;;;;4966407;28;20331;-72
2023/07/14 05:18:24;;;;;;;1.50;1.40;;;23.70;61.50;;;;;;4977843;28;20182;-72
2023/07/14 05:20:56;;;;;;;1.13;1.08;;;23.60;61.40;;;;;;4963560;28;20182;-71
2023/07/14 05:23:22;;;;;;;1.30;1.17;;;23.60;61.30;;;;;;4980517;28;20213;-72
2023/07/14 05:25:47;;;;;;;1.30;1.20;;;23.70;61.50;;;;;;4971210;28;20248;-71
2023/07/14 05:28:13;;;;;;;1.00;1.00;;;23.70;61.60;;;;;;4955726;28;20185;-72
2023/07/14 05:30:39;;;;;;;1.42;1.15;;;23.60;61.50;;;;;;4971899;28;20715;-70
2023/07/14 05:33:05;;;;;;;1.42;1.30;;;23.60;61.50;;;;;;4980069;28;20229;-72
2023/07/14 05:35:31;;;;;;;2.05;1.30;;;23.60;61.70;;;;;;4955506;28;20208;-71
2023/07/14 05:37:57;;;;;;;1.50;1.40;;;23.60;61.60;;;;;;4973287;28;20687;-71
2023/07/14 05:40:23;;;;;;;1.45;1.30;;;23.60;62.30;;;;;;4978908;28;20205;-71
2023/07/14 05:42:49;;;;;;;1.38;1.10;;;23.70;61.60;;;;;;4960829;28;20218;-71
2023/07/14 05:45:15;;;;;;;1.60;1.50;;;23.60;61.50;;;;;;4975560;28;20209;-71
2023/07/14 05:47:46;;;;;;;1.30;1.20;;;23.60;61.50;;;;;;4980312;28;20181;-72
2023/07/14 05:50:12;;;;;;;1.52;1.20;;;23.60;61.40;;;;;;4982876;28;20272;-71
2023/07/14 05:52:39;;;;;;;1.27;1.17;;;23.70;61.50;;;;;;4967458;28;20258;-71
2023/07/14 05:55:05;;;;;;;2.78;1.52;;;23.70;61.50;;;;;;4971203;28;20725;-72
2023/07/14 05:57:32;;;;;;;1.50;1.40;;;23.70;61.40;;;;;;4973356;28;20268;-72
2023/07/14 05:59:58;;;;;;;1.25;1.15;;;23.70;61.50;;;;;;4971853;28;20249;-72
2023/07/14 06:02:25;;;;;;;1.40;1.30;;;23.70;61.40;;;;;;4972276;28;20205;-72
2023/07/14 06:04:51;;;;;;;1.75;1.50;;;23.60;61.20;;;;;;4961546;28;20250;-71
2023/07/14 06:07:16;;;;;;;1.20;1.10;;;23.60;61.30;;;;;;4962332;28;20192;-72
2023/07/14 06:09:42;;;;;;;1.27;1.17;;;23.60;61.20;;;;;;4970990;28;20197;-72
2023/07/14 06:12:11;;;;;;;1.30;1.20;;;23.60;61.10;;;;;;4953868;28;20182;-71
2023/07/14 06:14:39;;;;;;;1.30;1.20;;;23.60;61.50;;;;;;4969175;28;20183;-71
2023/07/14 06:17:08;;;;;;;1.20;1.10;;;23.70;61.20;;;;;;4968327;28;20189;-72
2023/07/14 06:19:36;;;;;;;1.10;1.10;;;23.60;61.20;;;;;;4966653;28;20193;-72
2023/07/14 06:22:04;;;;;;;1.25;1.15;;;23.60;61.10;;;;;;4973237;28;20190;-72
2023/07/14 06:24:30;;;;;;;1.50;1.40;;;23.70;61.20;;;;;;4970971;28;20205;-72
2023/07/14 06:26:55;;;;;;;1.08;1.02;;;23.70;61.20;;;;;;4980650;28;20235;-72
2023/07/14 06:29:22;;;;;;;1.30;1.23;;;23.70;61.20;;;;;;4955270;28;20621;-72
2023/07/14 06:31:48;;;;;;;1.15;1.08;;;23.60;61.10;;;;;;4939379;28;20194;-72
2023/07/14 06:34:13;;;;;;;1.40;1.30;;;23.70;61.20;;;;;;4962857;28;20212;-71
2023/07/14 06:36:39;;;;;;;1.15;1.05;;;23.70;61.20;;;;;;4955168;28;20718;-70
2023/07/14 06:39:07;;;;;;;1.30;1.20;;;23.70;61.20;;;;;;4960248;28;20193;-72
2023/07/14 06:41:33;;;;;;;1.20;1.10;;;23.60;61.10;;;;;;4968313;28;20294;-72
2023/07/14 06:44:01;;;;;;;1.10;1.10;;;23.70;61.20;;;;;;4977388;28;20241;-70
2023/07/14 06:46:27;;;;;;;1.30;1.20;;;23.70;61.10;;;;;;4970149;28;20230;-72
2023/07/14 06:48:53;;;;;;;1.02;1.02;;;23.70;61.10;;;;;;4970681;28;20244;-72
2023/07/14 06:51:18;;;;;;;1.30;1.20;;;23.70;61.10;;;;;;4978877;28;20190;-72
2023/07/14 06:53:45;;;;;;;1.25;1.15;;;23.70;61.10;;;;;;4971006;28;20210;-72
2023/07/14 06:56:11;;;;;;;1.33;1.23;;;23.60;61.00;;;;;;4970144;28;20194;-72
2023/07/14 06:58:37;;;;;;;1.80;1.40;;;23.70;61.00;;;;;;4977603;28;20196;-72
2023/07/14 07:01:03;;;;;;;1.20;1.10;;;23.70;61.00;;;;;;4971593;28;20205;-72
2023/07/14 07:03:30;;;;;;;1.35;1.23;;;23.70;61.00;;;;;;4969931;28;20300;-72
2023/07/14 07:05:56;;;;;;;1.30;1.30;;;23.70;61.00;;;;;;4970992;28;20220;-72
2023/07/14 07:08:22;;;;;;;1.50;1.40;;;23.70;60.90;;;;;;4975592;28;20197;-72
2023/07/14 07:10:48;;;;;;;1.30;1.10;;;23.70;60.90;;;;;;4972560;28;20678;-72
2023/07/14 07:13:15;;;;;;;1.25;1.15;;;23.70;60.90;;;;;;4978734;28;20228;-71
2023/07/14 07:15:41;;;;;;;1.30;1.20;;;23.70;60.90;;;;;;4970039;28;20197;-72
2023/07/14 07:18:08;;;;;;;1.40;1.20;;;23.70;60.90;;;;;;4981502;28;20205;-72
2023/07/14 07:20:42;;;;;;;1.58;0.90;;;23.70;60.70;;;;;;4974493;28;20197;-71
2023/07/14 07:23:08;;;;;;;1.30;1.20;;;23.70;60.80;;;;;;4965698;28;20596;-72
2023/07/14 07:25:34;;;;;;;1.20;1.10;;;23.80;60.80;;;;;;4980650;28;20216;-72
2023/07/14 07:28:00;;;;;;;1.30;1.13;;;23.70;60.70;;;;;;4962892;28;20687;-70
2023/07/14 07:30:25;;;;;;;1.30;1.20;;;23.70;60.70;;;;;;4970200;28;20225;-72
2023/07/14 07:32:52;;;;;;;1.40;1.27;;;23.70;60.70;;;;;;4974796;28;20209;-72
2023/07/14 07:35:18;;;;;;;1.65;1.30;;;23.70;60.60;;;;;;4956644;28;20195;-72
2023/07/14 07:37:44;;;;;;;1.50;1.30;;;23.70;60.70;;;;;;4966561;28;20293;-72
2023/07/14 07:40:11;;;;;;;1.38;1.27;;;23.70;60.70;;;;;;4969667;28;20629;-72
2023/07/14 07:42:38;;;;;;;1.75;1.25;;;23.70;60.50;;;;;;4970031;28;20225;-72
2023/07/14 07:45:04;;;;;;;1.77;1.40;;;23.80;61.10;;;;;;4970140;28;20249;-72
2023/07/14 07:47:30;;;;;;;1.58;1.13;;;23.80;60.50;;;;;;4954685;28;20197;-70
2023/07/14 07:49:56;;;;;;;2.42;1.40;;;23.70;60.60;;;;;;4969160;28;20197;-72
2023/07/14 07:52:22;;;;;;;1.40;1.30;;;23.70;60.30;;;;;;4962153;28;20189;-72
2023/07/14 07:54:48;;;;;;;1.40;1.30;;;23.80;60.60;;;;;;4969660;28;20281;-72
2023/07/14 07:57:13;;;;;;;1.15;1.10;;;23.80;60.70;;;;;;4957822;28;20243;-72
2023/07/14 07:59:39;;;;;;;1.38;1.25;;;23.80;60.70;;;;;;4965415;28;20193;-72
2023/07/14 08:02:06;;;;;;;1.40;1.30;;;23.80;60.60;;;;;;4962289;28;20256;-71
2023/07/14 08:04:34;;;;;;;1.60;1.20;;;23.80;60.50;;;;;;4953098;28;20206;-72
2023/07/14 08:07:00;;;;;;;2.08;1.30;;;23.80;60.40;;;;;;4970793;28;20182;-72
2023/07/14 08:09:25;;;;;;;1.50;1.40;;;23.80;60.40;;;;;;4981113;28;20259;-71
2023/07/14 08:11:58;;;;;;;1.50;1.40;;;23.80;60.30;;;;;;4981667;28;20188;-72
2023/07/14 08:14:24;;;;;;;2.05;1.40;;;23.80;60.30;;;;;;4971030;28;20221;-70
2023/07/14 08:16:49;;;;;;;2.55;1.42;;;23.80;60.40;;;;;;4982533;28;20192;-70
2023/07/14 08:19:15;;;;;;;1.73;1.40;;;23.80;60.30;;;;;;4981306;28;20196;-72
2023/07/14 08:21:41;;;;;;;1.88;1.58;;;23.80;60.20;;;;;;4975345;28;20216;-72
2023/07/14 08:24:09;;;;;;;1.48;1.38;;;23.80;60.40;;;;;;4975797;28;20212;-72
2023/07/14 08:26:37;;;;;;;3.08;1.50;;;23.90;60.30;;;;;;4978081;28;20237;-71
2023/07/14 08:29:05;;;;;;;1.50;1.40;;;23.80;60.30;;;;;;4975856;28;20193;-71
2023/07/14 08:31:31;;;;;;;1.80;1.50;;;23.80;60.20;;;;;;4993174;28;20220;-72
2023/07/14 08:33:58;;;;;;;1.55;1.30;;;23.80;60.20;;;;;;4975156;28;20215;-71
2023/07/14 08:36:24;;;;;;;1.65;1.35;;;23.80;60.20;;;;;;4980716;28;20185;-70
2023/07/14 08:38:54;;;;;;;1.40;1.20;;;23.90;60.40;;;;;;4965599;28;20287;-72
2023/07/14 08:41:46;;;;;;;2.45;1.50;;;23.90;60.40;;;;;;4973606;28;20240;-72
2023/07/14 08:44:55;;;;;;;1.50;1.33;;;23.90;60.40;;;;;;4962088;28;20217;-71
2023/07/14 08:47:58;;;;;;;1.30;1.20;;;23.90;60.40;;;;;;4954624;28;20204;-71
2023/07/14 08:50:28;;;;;;;2.92;1.48;;;23.90;60.40;;;;;;4969348;28;20209;-71
2023/07/14 08:53:03;;;;;;;1.65;1.40;;;23.90;60.40;;;;;;4981382;28;20299;-72
2023/07/14 08:55:36;;;;;;;2.35;1.30;;;23.90;60.30;;;;;;4949487;28;20217;-72
2023/07/14 08:58:21;;;;;;;1.45;1.30;;;24.00;60.30;;;;;;4971996;28;20190;-72
2023/07/14 09:00:50;;;;;;;1.75;1.50;;;24.00;60.30;;;;;;4988756;28;20193;-70
2023/07/14 09:03:56;;;;;;;1.83;1.30;;;23.90;60.30;;;;;;4974878;28;20209;-71
2023/07/14 09:06:36;;;;;;;1.40;1.30;;;24.00;60.40;;;;;;4956777;28;20218;-72
2023/07/14 09:09:09;;;;;;;1.30;1.20;;;24.00;60.40;;;;;;4972629;28;20251;-71
2023/07/14 09:12:12;;;;;;;2.38;1.63;;;24.00;60.50;;;;;;4972827;28;20190;-72
2023/07/14 09:14:52;;;;;;;1.70;1.40;;;24.00;60.40;;;;;;4968046;28;20244;-72
2023/07/14 09:17:24;;;;;;;2.47;1.50;;;24.00;60.50;;;;;;4966783;28;20268;-71
2023/07/14 09:20:31;;;;;;;1.27;1.17;;;24.00;60.50;;;;;;4972266;28;20258;-72
2023/07/14 09:23:21;;;;;;;1.20;1.20;;;24.00;60.50;;;;;;4941699;28;20312;-71
2023/07/14 09:26:24;;;;;;;2.05;1.50;;;24.00;60.30;;;;;;4962722;28;20218;-72
2023/07/14 09:28:51;;;;;;;1.50;1.17;;;24.00;60.50;;;;;;4968839;28;20193;-72
2023/07/14 09:31:42;;;;;;;1.60;1.35;;;24.00;60.50;;;;;;4975920;28;20706;-72
2023/07/14 09:34:34;;;;;;;1.33;1.23;;;24.00;60.30;;;;;;4973948;28;20214;-72
2023/07/14 09:37:08;;;;;;;1.77;1.25;;;24.00;60.50;;;;;;4965429;28;20257;-70
2023/07/14 09:39:43;;;;;;;1.85;1.52;;;24.00;60.50;;;;;;4957268;28;20199;-72
2023/07/14 09:42:25;;;;;;;1.95;1.30;;;24.00;60.50;;;;;;4979933;28;20200;-72
2023/07/14 09:45:00;;;;;;;1.63;1.38;;;24.00;60.70;;;;;;4979224;28;20189;-71
2023/07/14 09:47:26;;;;;;;1.77;1.58;;;24.00;60.60;;;;;;4979251;28;20368;-72
2023/07/14 09:49:57;;;;;;;2.05;1.42;;;24.00;60.60;;;;;;4979931;28;20272;-71
2023/07/14 09:52:26;;;;;;;1.55;1.45;;;24.00;60.60;;;;;;4964447;28;20194;-71
2023/07/14 09:54:56;;;;;;;2.42;1.67;;;24.00;60.70;;;;;;4970856;28;20202;-72
2023/07/14 09:57:28;;;;;;;1.40;1.30;;;24.00;60.60;;;;;;4964133;28;20190;-70
2023/07/14 10:00:14;;;;;;;1.40;1.30;;;24.10;60.80;;;;;;4971258;28;20599;-71
2023/07/14 10:02:41;;;;;;;1.70;1.20;;;24.00;60.50;;;;;;4955789;28;20244;-72
2023/07/14 10:05:36;;;;;;;1.50;1.40;;;24.00;60.70;;;;;;4961683;28;20293;-72
2023/07/14 10:08:23;;;;;;;1.92;1.48;;;24.00;60.50;;;;;;4972688;28;20202;-71
2023/07/14 10:10:49;;;;;;;1.40;1.30;;;24.10;60.80;;;;;;4955576;28;20208;-72
2023/07/14 10:13:22;;;;;;;1.58;1.42;;;24.00;60.70;;;;;;4955240;28;20214;-72
2023/07/14 10:16:04;;;;;;;1.48;1.38;;;24.00;60.70;;;;;;4978282;28;20196;-71
2023/07/14 10:18:30;;;;;;;1.40;1.30;;;24.00;60.80;;;;;;4956916;28;20190;-72
2023/07/14 10:21:06;;;;;;;1.75;1.52;;;24.00;60.70;;;;;;4969743;28;20201;-72
2023/07/14 10:23:33;;;;;;;1.60;1.50;;;24.00;60.70;;;;;;4971673;28;20218;-72
2023/07/14 10:26:00;;;;;;;1.55;1.45;;;24.10;60.90;;;;;;4952615;28;20222;-72
2023/07/14 10:28:29;;;;;;;1.60;1.50;;;24.10;61.00;;;;;;4971150;28;20194;-72
2023/07/14 10:31:24;;;;;;;1.50;1.40;;;24.00;60.80;;;;;;4980214;28;20186;-71
2023/07/14 10:34:47;;;;;;;2.45;1.85;;;24.00;60.90;;;;;;4960316;28;20210;-72
2023/07/14 10:37:24;;;;;;;1.92;1.40;;;24.00;60.80;;;;;;4961155;28;20247;-72
2023/07/14 10:40:01;;;;;;;2.40;1.60;;;24.10;60.90;;;;;;4946948;28;20193;-71
2023/07/14 10:42:34;;;;;;;1.90;1.63;;;24.10;60.90;;;;;;4955075;28;20189;-72
2023/07/14 10:45:00;;;;;;;1.90;1.80;;;24.10;60.90;;;;;;4967720;28;20256;-72
2023/07/14 10:48:06;;;;;;;1.67;1.58;;;24.10;60.90;;;;;;4970379;28;20189;-72
2023/07/14 10:50:45;;;;;;;1.50;1.40;;;24.10;61.00;;;;;;4963702;28;20215;-72
2023/07/14 10:53:25;;;;;;;2.08;1.50;;;24.10;61.00;;;;;;4967002;28;20657;-72
2023/07/14 10:56:02;;;;;;;2.08;1.88;;;24.10;60.90;;;;;;4964852;28;20193;-72
2023/07/14 10:58:51;;;;;;;2.47;1.65;;;24.10;60.90;;;;;;4957449;28;20198;-71
2023/07/14 11:01:36;;;;;;;3.20;2.08;;;24.10;60.90;;;;;;4950590;28;20197;-72
2023/07/14 11:04:33;;;;;;;1.85;1.73;;;24.10;60.90;;;;;;4951122;28;20691;-72
2023/07/14 11:07:01;;;;;;;3.10;1.70;;;24.10;60.80;;;;;;4968601;28;20228;-70
2023/07/14 11:09:28;;;;;;;1.80;1.70;;;24.10;60.90;;;;;;4967236;28;20186;-71
2023/07/14 11:12:40;;;;;;;1.80;1.70;;;24.10;60.90;;;;;;4951391;28;20187;-72
2023/07/14 11:15:23;;;;;;;2.05;1.55;;;24.10;60.80;;;;;;4961023;28;20264;-71
2023/07/14 11:18:09;;;;;;;2.25;1.80;;;24.10;60.60;;;;;;4948668;28;20232;-71
2023/07/14 11:21:00;;;;;;;3.70;1.90;;;24.10;60.90;;;;;;4966610;28;20293;-71
2023/07/14 11:23:41;;;;;;;2.40;2.20;;;24.10;60.90;;;;;;4965339;28;20224;-72
2023/07/14 11:26:24;;;;;;;2.47;1.77;;;24.10;60.90;;;;;;4959762;28;20228;-72
2023/07/14 11:29:00;;;;;;;2.03;1.67;;;24.10;60.90;;;;;;4968957;28;20189;-72
2023/07/14 11:31:33;;;;;;;1.77;1.67;;;24.10;60.90;;;;;;4962255;28;20200;-71
2023/07/14 11:34:07;;;;;;;1.67;1.58;;;24.10;60.90;;;;;;4964737;28;20291;-72
2023/07/14 11:36:56;;;;;;;2.15;1.65;;;24.10;61.00;;;;;;4957365;28;20197;-71
2023/07/14 11:39:50;;;;;;;2.30;1.70;;;24.10;60.90;;;;;;4949772;28;20182;-71
2023/07/14 11:42:35;;;;;;;1.88;1.60;;;24.10;61.00;;;;;;4965738;28;20193;-72
2023/07/14 11:45:11;;;;;;;1.70;1.60;;;24.10;60.80;;;;;;4958259;28;20276;-72
2023/07/14 11:47:41;;;;;;;2.15;1.88;;;24.10;60.70;;;;;;4966026;28;20565;-71
2023/07/14 11:50:18;;;;;;;2.47;1.70;;;24.20;61.00;;;;;;4951233;28;20189;-71
2023/07/14 11:53:05;;;;;;;1.67;1.58;;;24.10;60.80;;;;;;4954297;28;20205;-71
2023/07/14 11:55:33;;;;;;;2.13;1.92;;;24.20;61.00;;;;;;4965130;28;20193;-71
2023/07/14 11:58:30;;;;;;;1.88;1.73;;;24.10;60.90;;;;;;4968982;28;20221;-71
2023/07/14 12:01:13;;;;;;;2.22;1.70;;;24.20;60.90;;;;;;4956243;28;20202;-71
2023/07/14 12:03:46;;;;;;;1.90;1.70;;;24.10;60.90;;;;;;4962449;28;20321;-71
2023/07/14 12:06:18;;;;;;;2.20;1.60;;;24.20;61.00;;;;;;4964943;28;20647;-70
2023/07/14 12:08:59;;;;;;;2.13;1.80;;;24.10;61.00;;;;;;4968245;28;20257;-72
2023/07/14 12:11:43;;;;;;;1.70;1.60;;;24.10;60.90;;;;;;4963141;28;20186;-72
2023/07/14 12:14:37;;;;;;;1.75;1.58;;;24.10;60.90;;;;;;4963815;28;20240;-71
2023/07/14 12:17:36;;;;;;;2.20;1.65;;;24.20;61.00;;;;;;4953489;28;20186;-70
2023/07/14 12:20:24;;;;;;;1.70;1.58;;;24.10;60.90;;;;;;4967527;28;20707;-72
2023/07/14 12:23:28;;;;;;;3.00;1.80;;;24.20;61.00;;;;;;4953710;28;20213;-72
2023/07/14 12:26:10;;;;;;;2.72;1.80;;;24.20;60.90;;;;;;4980396;28;20235;-72
2023/07/14 12:28:38;;;;;;;1.73;1.63;;;24.10;61.10;;;;;;4962805;28;20652;-72
2023/07/14 12:31:12;;;;;;;2.20;1.65;;;24.20;61.00;;;;;;4953698;28;20335;-72
2023/07/14 12:33:39;;;;;;;2.40;1.85;;;24.20;61.00;;;;;;4964437;28;20216;-72
2023/07/14 12:36:09;;;;;;;1.67;1.58;;;24.20;60.80;;;;;;4953109;28;20189;-72
2023/07/14 12:38:35;;;;;;;1.90;1.60;;;24.20;60.90;;;;;;4968058;28;20249;-72
2023/07/14 12:41:06;;;;;;;1.63;1.52;;;24.20;61.00;;;;;;4954760;28;20631;-71
2023/07/14 12:43:36;;;;;;;1.75;1.60;;;24.20;60.90;;;;;;4957721;28;20217;-71
2023/07/14 12:46:35;;;;;;;1.83;1.60;;;24.20;60.90;;;;;;4959216;28;20210;-71
2023/07/14 12:49:33;;;;;;;1.80;1.70;;;24.20;61.00;;;;;;4946794;28;20194;-73
2023/07/14 12:52:33;;;;;;;1.80;1.67;;;24.20;61.00;;;;;;4969186;28;20221;-72
2023/07/14 12:55:11;;;;;;;3.28;1.77;;;24.20;60.80;;;;;;4968509;28;20182;-73
2023/07/14 12:57:37;;;;;;;2.38;1.70;;;24.20;60.90;;;;;;4946209;28;20203;-73
2023/07/14 13:00:23;;;;;;;1.67;1.58;;;24.20;61.00;;;;;;4966053;28;20194;-73
2023/07/14 13:02:52;;;;;;;1.92;1.50;;;24.20;61.00;;;;;;4972736;28;20257;-72
2023/07/14 13:05:20;;;;;;;2.15;1.90;;;24.20;61.20;;;;;;4982121;28;20216;-73
2023/07/14 13:07:53;;;;;;;1.63;1.52;;;24.20;61.00;;;;;;4978180;28;20186;-73
2023/07/14 13:10:28;;;;;;;1.90;1.70;;;24.20;61.20;;;;;;4977264;28;20182;-73
2023/07/14 13:12:56;;;;;;;1.90;1.80;;;24.10;61.10;;;;;;4971906;28;20209;-73
2023/07/14 13:15:33;;;;;;;2.28;1.45;;;24.10;61.00;;;;;;4977634;28;20197;-73
2023/07/14 13:18:09;;;;;;;1.60;1.50;;;24.10;61.00;;;;;;4956482;28;20197;-73